PWSweather.com
Personal Weather Stations
Station Observations
MDHALE1
Southwest Baltimore Co., Halethorpe, MD 21227

Southwest Baltimore Co.Halethorpe, MD 21227

Lat: 39.23643, Lon: -76.696959

Elevation: 86

Station Type: Davis Vantage Pro2+

http://home.comcast.net/~halethorpe_weather/index.html

Latest ConditionsUpdated 7:30:12 PM EDT Sunday, Apr 20, 2014
Currently Today's Max Today's Min Today's Average
Temperature 57.1°F13.9°C 61.3°F16.3°C 47.8°F8.8°C 54.3°F12.4°C
Dew Point 38.6°F3.7°C 39.7°F4.3°C 29.8°F-1.2°C 35.6°F2.0°C
Winds 0.8 mph SE1.3 kmh SE 14.0 mph E22.5 kmh E - 4.8 mph 7.7 kmh
Wind Gusts 2.5 mph4.0 kmh 23.4 mph37.7 kmh - -
Humidity 50% 64% 42% 49%
Pressure 30.31 in1026.4 mb 30.44 in1030.8 mb 30.30 in1026.1 mb -
Hour Temp Dew Point Humidity Winds Wind Gusts Pressure Precip Precip Rate Daily Precip Total
07:30 PM 57.1°F13.9°C 38.6°F3.7°C 50% 0.8 mph SE1.3 kmh SE 2.5 mph4.0 kmh 30.31 in1026.4 mb 0.00 in0.0 mm 0.00 in/hr0.0 mm/hr 0.00 in0.0 mm
07:15 PM 58.1°F14.5°C 39.1°F3.9°C 49% 0.7 mph S1.1 kmh S 1.1 mph1.8 kmh 30.31 in1026.4 mb 0.00 in0.0 mm 0.00 in/hr0.0 mm/hr 0.00 in0.0 mm
07:00 PM 59.3°F15.2°C 39.1°F3.9°C 47% 1.2 mph SE1.9 kmh SE 3.7 mph6.0 kmh 30.31 in1026.4 mb 0.00 in0.0 mm 0.00 in/hr0.0 mm/hr 0.00 in0.0 mm
06:45 PM 60.1°F15.6°C 38.1°F3.4°C 44% 4.0 mph SE6.4 kmh SE 4.9 mph7.9 kmh 30.32 in1026.8 mb 0.00 in0.0 mm 0.00 in/hr0.0 mm/hr 0.00 in0.0 mm
06:30 PM 60.1°F15.6°C 38.1°F3.4°C 44% 3.4 mph ESE5.5 kmh ESE 4.9 mph7.9 kmh 30.32 in1026.8 mb 0.00 in0.0 mm 0.00 in/hr0.0 mm/hr 0.00 in0.0 mm
06:15 PM 60.3°F15.7°C 38.3°F3.5°C 44% 1.9 mph E3.1 kmh E 10.3 mph16.6 kmh 30.33 in1027.1 mb 0.00 in0.0 mm 0.00 in/hr0.0 mm/hr 0.00 in0.0 mm
06:00 PM 60.9°F16.1°C 38.3°F3.5°C 43% 3.0 mph ENE4.8 kmh ENE 4.9 mph7.9 kmh 30.33 in1027.1 mb 0.00 in0.0 mm 0.00 in/hr0.0 mm/hr 0.00 in0.0 mm
05:45 PM 61.1°F16.2°C 37.8°F3.2°C 42% 8.2 mph E13.2 kmh E 10.3 mph16.6 kmh 30.33 in1027.1 mb 0.00 in0.0 mm 0.00 in/hr0.0 mm/hr 0.00 in0.0 mm
05:30 PM 61.3°F16.3°C 38.0°F3.3°C 42% 8.1 mph ENE13.0 kmh ENE 12.5 mph20.1 kmh 30.33 in1027.1 mb 0.00 in0.0 mm 0.00 in/hr0.0 mm/hr 0.00 in0.0 mm
05:15 PM 60.9°F16.1°C 38.2°F3.4°C 43% 1.7 mph E2.7 kmh E 5.7 mph9.2 kmh 30.33 in1027.1 mb 0.00 in0.0 mm 0.00 in/hr0.0 mm/hr 0.00 in0.0 mm
05:00 PM 61.2°F16.2°C 38.5°F3.6°C 43% 6.1 mph ENE9.8 kmh ENE 8.0 mph12.9 kmh 30.33 in1027.1 mb 0.00 in0.0 mm 0.00 in/hr0.0 mm/hr 0.00 in0.0 mm
04:45 PM 60.9°F16.1°C 38.2°F3.4°C 43% 8.4 mph E13.5 kmh E 10.3 mph16.6 kmh 30.33 in1027.1 mb 0.00 in0.0 mm 0.00 in/hr0.0 mm/hr 0.00 in0.0 mm
04:30 PM 61.1°F16.2°C 38.4°F3.6°C 43% 8.6 mph ESE13.8 kmh ESE 10.3 mph16.6 kmh 30.34 in1027.4 mb 0.00 in0.0 mm 0.00 in/hr0.0 mm/hr 0.00 in0.0 mm
04:15 PM 60.8°F16.0°C 38.8°F3.8°C 44% 6.0 mph ENE9.7 kmh ENE 12.5 mph20.1 kmh 30.34 in1027.4 mb 0.00 in0.0 mm 0.00 in/hr0.0 mm/hr 0.00 in0.0 mm
04:00 PM 60.5°F15.8°C 38.5°F3.6°C 44% 3.3 mph SE5.3 kmh SE 4.9 mph7.9 kmh 30.34 in1027.4 mb 0.00 in0.0 mm 0.00 in/hr0.0 mm/hr 0.00 in0.0 mm
03:45 PM 59.6°F15.3°C 38.2°F3.4°C 45% 1.3 mph ESE2.1 kmh ESE 3.4 mph5.5 kmh 30.34 in1027.4 mb 0.00 in0.0 mm 0.00 in/hr0.0 mm/hr 0.00 in0.0 mm
03:30 PM 59.9°F15.5°C 39.1°F3.9°C 46% 6.8 mph ESE10.9 kmh ESE 10.3 mph16.6 kmh 30.35 in1027.8 mb 0.00 in0.0 mm 0.00 in/hr0.0 mm/hr 0.00 in0.0 mm
03:15 PM 60.0°F15.6°C 39.7°F4.3°C 47% 1.9 mph E3.1 kmh E 11.4 mph18.3 kmh 30.36 in1028.1 mb 0.00 in0.0 mm 0.00 in/hr0.0 mm/hr 0.00 in0.0 mm
03:00 PM 59.4°F15.2°C 38.0°F3.3°C 45% 12.2 mph E19.6 kmh E 13.7 mph22.0 kmh 30.36 in1028.1 mb 0.00 in0.0 mm 0.00 in/hr0.0 mm/hr 0.00 in0.0 mm
02:45 PM 59.2°F15.1°C 38.4°F3.6°C 46% 8.0 mph ENE12.9 kmh ENE 10.3 mph16.6 kmh 30.37 in1028.4 mb 0.00 in0.0 mm 0.00 in/hr0.0 mm/hr 0.00 in0.0 mm
02:30 PM 58.6°F14.8°C 38.4°F3.6°C 47% 5.8 mph E9.3 kmh E 11.4 mph18.3 kmh 30.38 in1028.8 mb 0.00 in0.0 mm 0.00 in/hr0.0 mm/hr 0.00 in0.0 mm
02:15 PM 58.4°F14.7°C 37.7°F3.2°C 46% 7.3 mph E11.7 kmh E 11.4 mph18.3 kmh 30.38 in1028.8 mb 0.00 in0.0 mm 0.00 in/hr0.0 mm/hr 0.00 in0.0 mm
02:00 PM 58.2°F14.6°C 38.1°F3.4°C 47% 2.9 mph ESE4.7 kmh ESE 4.6 mph7.4 kmh 30.39 in1029.1 mb 0.00 in0.0 mm 0.00 in/hr0.0 mm/hr 0.00 in0.0 mm
01:45 PM 57.6°F14.2°C 38.0°F3.3°C 48% 3.6 mph E5.8 kmh E 4.6 mph7.4 kmh 30.39 in1029.1 mb 0.00 in0.0 mm 0.00 in/hr0.0 mm/hr 0.00 in0.0 mm
01:30 PM 57.1°F13.9°C 37.6°F3.1°C 48% 8.3 mph E13.4 kmh E 13.7 mph22.0 kmh 30.40 in1029.5 mb 0.00 in0.0 mm 0.00 in/hr0.0 mm/hr 0.00 in0.0 mm
01:15 PM 57.2°F14.0°C 37.1°F2.8°C 47% 9.2 mph ESE14.8 kmh ESE 14.8 mph23.8 kmh 30.41 in1029.8 mb 0.00 in0.0 mm 0.00 in/hr0.0 mm/hr 0.00 in0.0 mm
01:00 PM 57.0°F13.9°C 38.0°F3.3°C 49% 0.5 mph E0.8 kmh E -- 30.41 in1029.8 mb 0.00 in0.0 mm 0.00 in/hr0.0 mm/hr 0.00 in0.0 mm
12:45 PM 56.2°F13.4°C 36.7°F2.6°C 48% 4.0 mph ESE6.4 kmh ESE 6.8 mph10.9 kmh 30.42 in1030.1 mb 0.00 in0.0 mm 0.00 in/hr0.0 mm/hr 0.00 in0.0 mm
12:30 PM 55.4°F13.0°C 37.1°F2.8°C 50% 4.9 mph E7.9 kmh E 6.8 mph10.9 kmh 30.43 in1030.5 mb 0.00 in0.0 mm 0.00 in/hr0.0 mm/hr 0.00 in0.0 mm
12:15 PM 55.8°F13.2°C 37.4°F3.0°C 50% 2.7 mph E4.3 kmh E 5.7 mph9.2 kmh 30.43 in1030.5 mb 0.00 in0.0 mm 0.00 in/hr0.0 mm/hr 0.00 in0.0 mm
12:00 PM 56.0°F13.3°C 37.6°F3.1°C 50% 7.0 mph SE11.3 kmh SE 11.4 mph18.3 kmh 30.43 in1030.5 mb 0.00 in0.0 mm 0.00 in/hr0.0 mm/hr 0.00 in0.0 mm
11:45 AM 56.3°F13.5°C 38.4°F3.6°C 51% 4.2 mph ESE6.8 kmh ESE 14.8 mph23.8 kmh 30.43 in1030.5 mb 0.00 in0.0 mm 0.00 in/hr0.0 mm/hr 0.00 in0.0 mm
11:30 AM 55.2°F12.9°C 37.8°F3.2°C 52% 5.1 mph ENE8.2 kmh ENE 6.8 mph10.9 kmh 30.44 in1030.8 mb 0.00 in0.0 mm 0.00 in/hr0.0 mm/hr 0.00 in0.0 mm
11:15 AM 54.8°F12.7°C 38.0°F3.3°C 53% 3.5 mph E5.6 kmh E 11.4 mph18.3 kmh 30.44 in1030.8 mb 0.00 in0.0 mm 0.00 in/hr0.0 mm/hr 0.00 in0.0 mm
11:00 AM 53.8°F12.1°C 37.6°F3.1°C 54% 4.8 mph E7.7 kmh E 8.0 mph12.9 kmh 30.44 in1030.8 mb 0.00 in0.0 mm 0.00 in/hr0.0 mm/hr 0.00 in0.0 mm
10:45 AM 52.9°F11.6°C 37.2°F2.9°C 55% 5.8 mph E9.3 kmh E 8.6 mph13.8 kmh 30.44 in1030.8 mb 0.00 in0.0 mm 0.00 in/hr0.0 mm/hr 0.00 in0.0 mm
10:30 AM 52.4°F11.3°C 37.2°F2.9°C 56% 10.0 mph SE16.1 kmh SE 12.3 mph19.8 kmh 30.43 in1030.5 mb 0.00 in0.0 mm 0.00 in/hr0.0 mm/hr 0.00 in0.0 mm
10:15 AM 52.1°F11.2°C 37.3°F2.9°C 57% 7.4 mph ENE11.9 kmh ENE 17.1 mph27.5 kmh 30.43 in1030.5 mb 0.00 in0.0 mm 0.00 in/hr0.0 mm/hr 0.00 in0.0 mm
10:00 AM 51.8°F11.0°C 37.0°F2.8°C 57% 6.0 mph SE9.7 kmh SE 12.3 mph19.8 kmh 30.42 in1030.1 mb 0.00 in0.0 mm 0.00 in/hr0.0 mm/hr 0.00 in0.0 mm
09:45 AM 51.2°F10.7°C 36.5°F2.5°C 57% 6.8 mph E10.9 kmh E 12.5 mph20.1 kmh 30.42 in1030.1 mb 0.00 in0.0 mm 0.00 in/hr0.0 mm/hr 0.00 in0.0 mm
09:30 AM 51.4°F10.8°C 36.7°F2.6°C 57% 14.0 mph E22.5 kmh E 20.5 mph33.0 kmh 30.41 in1029.8 mb 0.00 in0.0 mm 0.00 in/hr0.0 mm/hr 0.00 in0.0 mm
09:15 AM 51.9°F11.1°C 36.2°F2.3°C 55% 8.0 mph E12.9 kmh E 10.3 mph16.6 kmh 30.40 in1029.5 mb 0.00 in0.0 mm 0.00 in/hr0.0 mm/hr 0.00 in0.0 mm
09:00 AM 52.2°F11.2°C 36.5°F2.5°C 55% 11.3 mph NE18.2 kmh NE 23.4 mph37.7 kmh 30.40 in1029.5 mb 0.00 in0.0 mm 0.00 in/hr0.0 mm/hr 0.00 in0.0 mm
08:45 AM 51.8°F11.0°C 34.7°F1.5°C 52% 8.6 mph E13.8 kmh E 12.5 mph20.1 kmh 30.39 in1029.1 mb 0.00 in0.0 mm 0.00 in/hr0.0 mm/hr 0.00 in0.0 mm
08:30 AM 51.3°F10.7°C 32.7°F0.4°C 49% 4.5 mph E7.2 kmh E 10.3 mph16.6 kmh 30.38 in1028.8 mb 0.00 in0.0 mm 0.00 in/hr0.0 mm/hr 0.00 in0.0 mm
08:15 AM 51.2°F10.7°C 31.6°F-0.2°C 47% 9.4 mph ENE15.1 kmh ENE 16.0 mph25.7 kmh 30.38 in1028.8 mb 0.00 in0.0 mm 0.00 in/hr0.0 mm/hr 0.00 in0.0 mm
08:00 AM 51.0°F10.6°C 30.9°F-0.6°C 46% 9.4 mph ENE15.1 kmh ENE 12.5 mph20.1 kmh 30.37 in1028.4 mb 0.00 in0.0 mm 0.00 in/hr0.0 mm/hr 0.00 in0.0 mm
07:45 AM 50.7°F10.4°C 30.7°F-0.7°C 46% 10.8 mph NNE17.4 kmh NNE 12.5 mph20.1 kmh 30.36 in1028.1 mb 0.00 in0.0 mm 0.00 in/hr0.0 mm/hr 0.00 in0.0 mm
07:30 AM 50.3°F10.2°C 31.3°F-0.4°C 48% 9.8 mph E15.8 kmh E 10.3 mph16.6 kmh 30.36 in1028.1 mb 0.00 in0.0 mm 0.00 in/hr0.0 mm/hr 0.00 in0.0 mm
07:15 AM 50.0°F10.0°C 31.1°F-0.5°C 48% 7.3 mph E11.7 kmh E 8.0 mph12.9 kmh 30.36 in1028.1 mb 0.00 in0.0 mm 0.00 in/hr0.0 mm/hr 0.00 in0.0 mm
07:00 AM 49.8°F9.9°C 31.4°F-0.3°C 49% 4.7 mph ENE7.6 kmh ENE 8.0 mph12.9 kmh 30.34 in1027.4 mb 0.00 in0.0 mm 0.00 in/hr0.0 mm/hr 0.00 in0.0 mm
06:45 AM 49.8°F9.9°C 31.4°F-0.3°C 49% 5.4 mph ENE8.7 kmh ENE 9.1 mph14.6 kmh 30.35 in1027.8 mb 0.00 in0.0 mm 0.00 in/hr0.0 mm/hr 0.00 in0.0 mm
06:30 AM 49.8°F9.9°C 30.9°F-0.6°C 48% 3.2 mph NE5.1 kmh NE 6.8 mph10.9 kmh 30.34 in1027.4 mb 0.00 in0.0 mm 0.00 in/hr0.0 mm/hr 0.00 in0.0 mm
06:15 AM 49.6°F9.8°C 30.7°F-0.7°C 48% 2.1 mph ENE3.4 kmh ENE 2.3 mph3.7 kmh 30.34 in1027.4 mb 0.00 in0.0 mm 0.00 in/hr0.0 mm/hr 0.00 in0.0 mm
06:00 AM 49.2°F9.6°C 29.8°F-1.2°C 47% 3.4 mph NE5.5 kmh NE 6.8 mph10.9 kmh 30.34 in1027.4 mb 0.00 in0.0 mm 0.00 in/hr0.0 mm/hr 0.00 in0.0 mm
05:45 AM 48.7°F9.3°C 29.8°F-1.2°C 48% 4.0 mph NE6.4 kmh NE 5.7 mph9.2 kmh 30.32 in1026.8 mb 0.00 in0.0 mm 0.00 in/hr0.0 mm/hr 0.00 in0.0 mm
05:30 AM 48.4°F9.1°C 30.1°F-1.1°C 49% 1.3 mph NNE2.1 kmh NNE 3.4 mph5.5 kmh 30.32 in1026.8 mb 0.00 in0.0 mm 0.00 in/hr0.0 mm/hr 0.00 in0.0 mm
05:15 AM 48.6°F9.2°C 30.3°F-0.9°C 49% 1.3 mph NNE2.1 kmh NNE 4.6 mph7.4 kmh 30.31 in1026.4 mb 0.00 in0.0 mm 0.00 in/hr0.0 mm/hr 0.00 in0.0 mm
05:00 AM 48.6°F9.2°C 30.3°F-0.9°C 49% 0.1 mph NE0.2 kmh NE 1.1 mph1.8 kmh 30.31 in1026.4 mb 0.00 in0.0 mm 0.00 in/hr0.0 mm/hr 0.00 in0.0 mm
04:45 AM 48.8°F9.3°C 31.0°F-0.6°C 50% 1.9 mph NE3.1 kmh NE 3.4 mph5.5 kmh 30.31 in1026.4 mb 0.00 in0.0 mm 0.00 in/hr0.0 mm/hr 0.00 in0.0 mm
04:30 AM 48.9°F9.4°C 30.6°F-0.8°C 49% 0.7 mph NE1.1 kmh NE 1.1 mph1.8 kmh 30.31 in1026.4 mb 0.00 in0.0 mm 0.00 in/hr0.0 mm/hr 0.00 in0.0 mm
04:15 AM 48.7°F9.3°C 30.9°F-0.6°C 50% 2.2 mph NE3.5 kmh NE 4.6 mph7.4 kmh 30.30 in1026.1 mb 0.00 in0.0 mm 0.00 in/hr0.0 mm/hr 0.00 in0.0 mm
04:00 AM 48.3°F9.1°C 31.5°F-0.3°C 52% 0.8 mph NE1.3 kmh NE 3.4 mph5.5 kmh 30.30 in1026.1 mb 0.00 in0.0 mm 0.00 in/hr0.0 mm/hr 0.00 in0.0 mm
03:45 AM 47.8°F8.8°C 32.4°F0.2°C 55% 2.5 mph ESE4.0 kmh ESE 2.5 mph4.0 kmh 30.30 in1026.1 mb 0.00 in0.0 mm 0.00 in/hr0.0 mm/hr 0.00 in0.0 mm
03:30 AM 48.2°F9.0°C 32.7°F0.4°C 55% 1.1 mph ESE1.8 kmh ESE 1.2 mph1.9 kmh 30.30 in1026.1 mb 0.00 in0.0 mm 0.00 in/hr0.0 mm/hr 0.00 in0.0 mm
03:15 AM 48.3°F9.1°C 33.3°F0.7°C 56% Calm Calm -- 30.30 in1026.1 mb 0.00 in0.0 mm 0.00 in/hr0.0 mm/hr 0.00 in0.0 mm
03:00 AM 48.3°F9.1°C 32.8°F0.4°C 55% 0.7 mph ESE1.1 kmh ESE 2.5 mph4.0 kmh 30.31 in1026.4 mb 0.00 in0.0 mm 0.00 in/hr0.0 mm/hr 0.00 in0.0 mm
02:45 AM 48.2°F9.0°C 34.5°F1.4°C 59% 2.8 mph ESE4.5 kmh ESE 3.7 mph6.0 kmh 30.31 in1026.4 mb 0.00 in0.0 mm 0.00 in/hr0.0 mm/hr 0.00 in0.0 mm
02:30 AM 48.0°F8.9°C 35.2°F1.8°C 61% Calm Calm -- 30.30 in1026.1 mb 0.00 in0.0 mm 0.00 in/hr0.0 mm/hr 0.00 in0.0 mm
01:00 AM 50.4°F10.2°C 38.7°F3.7°C 64% Calm Calm -- 30.31 in1026.4 mb 0.00 in0.0 mm 0.00 in/hr0.0 mm/hr 0.00 in0.0 mm